Time;durP1;ratioP1;P1;durP2;ratioP2;P2;SDS_P1;SDS_P2;PMS_P1;PMS_P2;Temp;Humidity;BMP_temperature;BMP_pressure;BME280_temperature;BME280_humidity;BME280_pressure;Samples;Min_cycle;Max_cycle;Signal;HPM_P1;HPM_P2
2023/10/24 00:01:09;;;;;;;1.80;0.65;;;12.40;99.30;;;;;;4729206;30;20061;-88
2023/10/24 00:03:37;;;;;;;1.40;0.70;;;12.40;99.40;;;;;;4725059;30;20052;-88
2023/10/24 00:06:04;;;;;;;1.65;0.70;;;12.40;99.30;;;;;;4740169;30;20048;-87
2023/10/24 00:08:34;;;;;;;1.55;0.60;;;12.40;99.40;;;;;;4736448;30;20049;-87
2023/10/24 00:11:04;;;;;;;1.90;0.80;;;12.40;99.40;;;;;;4731611;30;20398;-87
2023/10/24 00:13:31;;;;;;;2.13;0.70;;;12.40;99.30;;;;;;4738282;30;20057;-86
2023/10/24 00:15:59;;;;;;;1.67;0.65;;;12.40;99.30;;;;;;4744521;30;20073;-86
2023/10/24 00:18:27;;;;;;;3.03;0.80;;;12.50;99.40;;;;;;4708795;30;20061;-88
2023/10/24 00:20:54;;;;;;;1.73;0.70;;;12.50;99.40;;;;;;4742571;30;20391;-87
2023/10/24 00:23:22;;;;;;;1.55;0.85;;;12.50;99.40;;;;;;4710699;30;20064;-86
2023/10/24 00:25:55;;;;;;;0.93;0.50;;;12.50;99.40;;;;;;4745743;30;20045;-86
2023/10/24 00:28:26;;;;;;;2.40;0.77;;;12.50;99.40;;;;;;4731444;30;20045;-87
2023/10/24 00:30:53;;;;;;;1.42;0.70;;;12.50;99.40;;;;;;4736879;30;20140;-87
2023/10/24 00:33:35;;;;;;;2.00;0.75;;;12.50;99.40;;;;;;4734041;30;20078;-88
2023/10/24 00:36:02;;;;;;;2.45;0.80;;;12.50;99.40;;;;;;4748949;30;20056;-88
2023/10/24 00:38:29;;;;;;;1.95;0.80;;;12.50;99.40;;;;;;4711712;30;20057;-87
2023/10/24 00:41:03;;;;;;;1.48;0.75;;;12.50;99.40;;;;;;4745578;30;20057;-88
2023/10/24 00:43:33;;;;;;;1.92;1.05;;;12.50;99.40;;;;;;4718728;30;20499;-87
2023/10/24 00:46:01;;;;;;;2.47;1.20;;;12.50;99.40;;;;;;4750326;30;20048;-88
2023/10/24 00:48:37;;;;;;;2.45;1.38;;;12.50;99.40;;;;;;4726427;30;20060;-87
2023/10/24 00:51:06;;;;;;;3.22;2.17;;;12.50;99.40;;;;;;4750943;30;20048;-88
2023/10/24 00:53:37;;;;;;;2.58;1.60;;;12.50;99.40;;;;;;4724561;30;20072;-88
2023/10/24 00:56:12;;;;;;;3.08;2.22;;;12.50;99.40;;;;;;4752757;30;20146;-88
2023/10/24 00:58:41;;;;;;;2.63;1.98;;;12.60;99.40;;;;;;4753282;30;20058;-88
2023/10/24 01:01:12;;;;;;;3.00;2.22;;;12.60;99.40;;;;;;4753618;30;20061;-88
2023/10/24 01:03:40;;;;;;;2.92;1.80;;;12.60;99.40;;;;;;4731813;30;20142;-88
2023/10/24 01:06:11;;;;;;;1.88;1.33;;;12.60;99.40;;;;;;4743416;30;20094;-88
2023/10/24 01:08:38;;;;;;;3.30;1.67;;;12.60;99.40;;;;;;4727092;30;20048;-88
2023/10/24 01:11:11;;;;;;;3.42;2.17;;;12.60;99.40;;;;;;4754040;30;20052;-88
2023/10/24 01:13:39;;;;;;;3.22;2.33;;;12.60;99.40;;;;;;4735749;30;20514;-88
2023/10/24 01:16:06;;;;;;;3.58;2.35;;;12.60;99.40;;;;;;4739437;30;20072;-88
2023/10/24 01:18:35;;;;;;;4.18;1.83;;;12.60;99.40;;;;;;4755987;30;20064;-88
2023/10/24 01:21:05;;;;;;;2.63;1.75;;;12.60;99.40;;;;;;4770872;30;20105;-88
2023/10/24 01:23:32;;;;;;;3.72;2.05;;;12.60;99.40;;;;;;4770904;30;20052;-88
2023/10/24 01:26:01;;;;;;;2.45;1.60;;;12.60;99.40;;;;;;4764130;30;20076;-89
2023/10/24 01:28:29;;;;;;;2.83;1.77;;;12.60;99.50;;;;;;4769450;30;20051;-88
2023/10/24 01:30:57;;;;;;;1.88;1.52;;;12.60;99.50;;;;;;4770627;30;20516;-88
2023/10/24 01:33:32;;;;;;;2.53;1.70;;;12.60;99.50;;;;;;4760858;30;20127;-88
2023/10/24 01:36:03;;;;;;;2.97;1.95;;;12.60;99.50;;;;;;4733703;30;20080;-89
2023/10/24 01:38:35;;;;;;;3.85;2.83;;;12.60;99.50;;;;;;4766147;30;20078;-88
2023/10/24 01:41:06;;;;;;;3.28;2.10;;;12.60;99.50;;;;;;4737352;30;20072;-88
2023/10/24 01:43:39;;;;;;;4.00;1.33;;;12.60;99.50;;;;;;4753221;30;20095;-89
2023/10/24 01:46:18;;;;;;;2.35;1.58;;;12.70;99.50;;;;;;4742349;30;20053;-89
2023/10/24 01:48:53;;;;;;;2.78;1.77;;;12.60;99.50;;;;;;4778164;29;20485;-88
2023/10/24 01:51:24;;;;;;;2.78;1.50;;;12.70;99.50;;;;;;4727063;30;20056;-88
2023/10/24 01:53:55;;;;;;;3.25;1.42;;;12.60;99.50;;;;;;4753163;30;20502;-87
2023/10/24 01:56:41;;;;;;;2.40;1.50;;;12.70;99.50;;;;;;4759798;30;20060;-88
2023/10/24 01:59:09;;;;;;;3.03;1.42;;;12.70;99.50;;;;;;4769964;30;20099;-89
2023/10/24 02:01:36;;;;;;;2.58;1.52;;;12.60;99.50;;;;;;4740379;30;20463;-89
2023/10/24 02:04:03;;;;;;;4.25;2.08;;;12.60;99.50;;;;;;4760256;30;20052;-88
2023/10/24 02:06:33;;;;;;;3.22;2.25;;;12.60;99.50;;;;;;4728758;30;20068;-88
2023/10/24 02:09:00;;;;;;;3.50;1.48;;;12.70;99.50;;;;;;4752672;30;20417;-87
2023/10/24 02:11:28;;;;;;;4.00;1.60;;;12.70;99.50;;;;;;4741021;30;20045;-88
2023/10/24 02:13:59;;;;;;;5.38;2.47;;;12.70;99.60;;;;;;4762133;30;20055;-89
2023/10/24 02:16:29;;;;;;;3.78;2.10;;;12.60;99.50;;;;;;4749738;30;20060;-88
2023/10/24 02:19:02;;;;;;;2.53;1.52;;;12.60;99.50;;;;;;4772435;29;20066;-88
2023/10/24 02:21:47;;;;;;;3.42;1.90;;;12.60;99.50;;;;;;4747385;30;20048;-88
2023/10/24 02:24:14;;;;;;;5.55;1.92;;;12.60;99.60;;;;;;4762641;30;20051;-88
2023/10/24 02:26:44;;;;;;;3.30;1.70;;;12.60;99.50;;;;;;4766679;30;20481;-88
2023/10/24 02:29:18;;;;;;;4.60;2.08;;;12.60;99.50;;;;;;4738062;30;20044;-88
2023/10/24 02:31:46;;;;;;;3.47;1.65;;;12.60;99.50;;;;;;4755852;30;20062;-88
2023/10/24 02:34:16;;;;;;;3.17;1.58;;;12.60;99.50;;;;;;4740539;30;20148;-88
2023/10/24 02:36:56;;;;;;;4.60;1.60;;;12.60;99.50;;;;;;4773761;30;20086;-89
2023/10/24 02:39:32;;;;;;;2.05;0.95;;;12.60;99.50;;;;;;4746799;30;20060;-88
2023/10/24 02:42:00;;;;;;;3.38;1.30;;;12.50;99.50;;;;;;4749565;30;20438;-89
2023/10/24 02:44:36;;;;;;;2.50;1.25;;;12.60;99.50;;;;;;4773895;29;20052;-89
2023/10/24 02:47:06;;;;;;;2.83;1.42;;;12.60;99.50;;;;;;4752700;30;20437;-89
2023/10/24 02:49:43;;;;;;;3.13;1.23;;;12.50;99.50;;;;;;4738187;30;20147;-89
2023/10/24 02:52:10;;;;;;;3.13;1.27;;;12.50;99.50;;;;;;4756407;30;20425;-89
2023/10/24 02:55:03;;;;;;;2.17;0.90;;;12.50;99.50;;;;;;4739643;30;20588;-89
2023/10/24 02:57:38;;;;;;;2.10;1.38;;;12.50;99.50;;;;;;4758055;30;20109;-89
2023/10/24 03:00:06;;;;;;;1.80;0.88;;;12.50;99.50;;;;;;4764969;30;20064;-89
2023/10/24 03:02:57;;;;;;;1.47;0.80;;;12.50;99.50;;;;;;4764688;30;20059;-89
2023/10/24 03:05:26;;;;;;;1.70;0.60;;;12.50;99.50;;;;;;4751002;30;20498;-89
2023/10/24 03:08:12;;;;;;;1.40;0.60;;;12.50;99.50;;;;;;4759717;30;20056;-89
2023/10/24 03:11:24;;;;;;;1.30;0.63;;;12.50;99.50;;;;;;4754479;30;20105;-90
2023/10/24 03:14:08;;;;;;;0.95;0.50;;;12.50;99.50;;;;;;4734523;30;20139;-90
2023/10/24 03:16:44;;;;;;;1.55;0.70;;;12.50;99.50;;;;;;4731472;30;20056;-90
2023/10/24 03:19:17;;;;;;;3.20;0.90;;;12.50;99.50;;;;;;4766387;30;20113;-90
2023/10/24 03:21:47;;;;;;;5.13;1.40;;;12.50;99.50;;;;;;4768754;30;20058;-90
2023/10/24 03:24:27;;;;;;;3.25;1.80;;;12.50;99.50;;;;;;4717676;30;20091;-91
2023/10/24 03:27:14;;;;;;;3.00;1.45;;;12.50;99.40;;;;;;4749174;30;20109;-90
2023/10/24 03:29:41;;;;;;;3.97;1.50;;;12.40;99.40;;;;;;4761883;30;20052;-90
2023/10/24 03:32:16;;;;;;;2.83;1.23;;;12.50;99.40;;;;;;4754207;30;20495;-90
2023/10/24 03:34:47;;;;;;;2.97;1.20;;;12.40;99.40;;;;;;4765847;30;20118;-90
2023/10/24 03:37:17;;;;;;;4.32;1.35;;;12.50;99.40;;;;;;4741812;30;20058;-90
2023/10/24 03:39:48;;;;;;;2.78;1.10;;;12.50;99.40;;;;;;4741473;30;20063;-89
2023/10/24 03:42:15;;;;;;;2.53;1.23;;;12.50;99.40;;;;;;4759795;30;20124;-89
2023/10/24 03:44:44;;;;;;;2.92;1.05;;;12.50;99.40;;;;;;4766289;30;20098;-90
2023/10/24 03:47:19;;;;;;;3.13;1.05;;;12.40;99.40;;;;;;4749410;30;20048;-89
2023/10/24 03:50:05;;;;;;;4.13;2.05;;;12.40;99.40;;;;;;4741201;30;20125;-90
2023/10/24 03:52:59;;;;;;;2.97;1.47;;;12.40;99.40;;;;;;4735027;30;20057;-90
2023/10/24 03:55:37;;;;;;;3.22;1.55;;;12.40;99.40;;;;;;4754989;30;20117;-90
2023/10/24 03:58:09;;;;;;;3.30;1.45;;;12.40;99.30;;;;;;4758920;30;20159;-91
2023/10/24 04:01:00;;;;;;;2.35;1.00;;;12.40;99.40;;;;;;4772593;30;20056;-90
2023/10/24 04:03:41;;;;;;;2.08;1.10;;;12.40;99.40;;;;;;4737798;30;20052;-90
2023/10/24 04:07:19;;;;;;;2.75;1.20;;;12.40;99.40;;;;;;4754338;30;20060;-91
2023/10/24 04:10:26;;;;;;;3.05;1.08;;;12.40;99.30;;;;;;4769127;30;20058;-90
2023/10/24 04:13:29;;;;;;;2.17;0.98;;;12.30;99.40;;;;;;4753113;30;20059;-91
2023/10/24 04:16:05;;;;;;;2.63;1.30;;;12.30;99.30;;;;;;4745221;30;20056;-90
2023/10/24 04:19:23;;;;;;;;;;;;;;;;;;;;;
2023/10/24 04:23:04;;;;;;;3.00;1.00;;;12.30;99.40;;;;;;4746046;30;20039;-91
2023/10/24 04:30:59;;;;;;;1.15;0.60;;;12.20;99.30;;;;;;4729667;30;20642;-92
2023/10/24 04:33:57;;;;;;;;;;;;;;;;;;;;;
2023/10/24 04:45:43;;;;;;;2.00;0.90;;;12.20;99.20;;;;;;4706290;30;20085;-91
2023/10/24 04:57:08;;;;;;;2.33;1.05;;;12.10;99.10;;;;;;4702265;30;20091;-91
2023/10/24 05:05:27;;;;;;;;;;;;;;;;;;;;;
2023/10/24 08:07:26;;;;;;;;;;;;;;;;;;;;;
2023/10/24 08:15:39;;;;;;;2.40;0.98;;;12.20;98.20;;;;;;4773613;30;20103;-91
2023/10/24 08:27:11;;;;;;;2.58;0.95;;;12.30;98.20;;;;;;4773357;30;20078;-88
2023/10/24 08:29:41;;;;;;;2.88;1.27;;;12.30;98.20;;;;;;4757365;30;20109;-83
2023/10/24 08:32:08;;;;;;;2.03;0.90;;;12.30;98.10;;;;;;4742291;30;20075;-84
2023/10/24 08:34:50;;;;;;;2.05;1.05;;;12.40;98.10;;;;;;4763382;30;20104;-87
2023/10/24 08:37:20;;;;;;;2.38;1.10;;;12.50;98.10;;;;;;4759428;30;20059;-85
2023/10/24 08:39:48;;;;;;;2.90;1.27;;;12.60;98.00;;;;;;4741428;30;20085;-81
2023/10/24 08:42:16;;;;;;;2.40;1.17;;;12.70;97.90;;;;;;4742465;30;20090;-83
2023/10/24 08:44:45;;;;;;;3.55;1.67;;;12.80;97.80;;;;;;4770644;30;20050;-85
2023/10/24 08:47:14;;;;;;;2.50;1.33;;;12.90;97.70;;;;;;4756047;30;20131;-83
2023/10/24 08:49:42;;;;;;;2.65;1.00;;;13.00;97.60;;;;;;4771281;30;20071;-83
2023/10/24 08:52:10;;;;;;;6.55;2.10;;;13.10;97.50;;;;;;4763140;30;20082;-81
2023/10/24 08:55:17;;;;;;;;;;;;;;;;;;;;;
2023/10/24 08:58:54;;;;;;;;;;;;;;;;;;;;;
2023/10/24 09:01:57;;;;;;;3.83;2.05;;;13.40;97.10;;;;;;4736184;30;20058;-84
2023/10/24 09:04:25;;;;;;;3.78;1.92;;;13.50;97.00;;;;;;4719416;30;20056;-82
2023/10/24 09:06:52;;;;;;;3.83;2.03;;;13.60;97.00;;;;;;4719536;30;20103;-82
2023/10/24 09:09:19;;;;;;;3.95;2.13;;;13.60;97.00;;;;;;4719504;30;20060;-83
2023/10/24 09:12:00;;;;;;;5.03;2.20;;;13.70;97.00;;;;;;4719232;30;20075;-83
2023/10/24 09:14:29;;;;;;;3.75;2.00;;;13.70;96.90;;;;;;4719279;30;20052;-83
2023/10/24 09:17:15;;;;;;;5.38;3.30;;;13.60;96.90;;;;;;4723142;30;20543;-82
2023/10/24 09:19:43;;;;;;;4.85;2.90;;;13.50;96.80;;;;;;4712769;30;20058;-82
2023/10/24 09:22:17;;;;;;;4.65;2.53;;;13.40;97.00;;;;;;4719335;30;20460;-83
2023/10/24 09:24:48;;;;;;;3.80;1.95;;;13.40;97.10;;;;;;4718454;30;20060;-82
2023/10/24 09:27:16;;;;;;;7.43;2.40;;;13.40;97.10;;;;;;4718771;30;20044;-84
2023/10/24 09:29:48;;;;;;;5.07;2.47;;;13.40;97.10;;;;;;4727499;30;20045;-82
2023/10/24 09:32:16;;;;;;;5.90;3.13;;;13.40;97.00;;;;;;4768531;30;20043;-82
2023/10/24 09:34:47;;;;;;;5.65;3.25;;;13.40;97.00;;;;;;4752316;30;20498;-82
2023/10/24 09:37:15;;;;;;;5.05;2.88;;;13.40;96.90;;;;;;4767686;30;20079;-82
2023/10/24 09:39:51;;;;;;;5.88;3.58;;;13.40;97.00;;;;;;4740947;30;20056;-83
2023/10/24 09:42:24;;;;;;;5.70;3.35;;;13.40;96.90;;;;;;4752697;30;20067;-82
2023/10/24 09:44:57;;;;;;;3.75;2.83;;;13.50;96.80;;;;;;4759360;30;20059;-86
2023/10/24 09:47:26;;;;;;;4.95;2.85;;;13.60;96.80;;;;;;4792912;29;20060;-81
2023/10/24 09:49:55;;;;;;;4.80;3.35;;;13.70;96.60;;;;;;4743858;30;20131;-82
2023/10/24 09:52:27;;;;;;;4.65;2.70;;;13.70;96.50;;;;;;4764560;30;20048;-82
2023/10/24 09:54:55;;;;;;;6.32;2.88;;;13.90;96.50;;;;;;4757034;30;20115;-81
2023/10/24 09:57:23;;;;;;;5.20;2.65;;;14.00;96.40;;;;;;4751076;30;20059;-84
2023/10/24 09:59:55;;;;;;;3.75;2.47;;;14.10;96.30;;;;;;4751316;30;20051;-87
2023/10/24 10:02:26;;;;;;;6.32;2.80;;;14.20;96.10;;;;;;4770996;30;20052;-81
2023/10/24 10:04:54;;;;;;;3.90;2.38;;;14.30;96.00;;;;;;4756098;30;20066;-87
2023/10/24 10:07:24;;;;;;;3.90;2.45;;;14.40;96.00;;;;;;4796654;29;20060;-87
2023/10/24 10:09:52;;;;;;;5.55;2.83;;;14.50;95.90;;;;;;4752474;30;20056;-82
2023/10/24 10:12:20;;;;;;;4.95;2.92;;;14.50;95.70;;;;;;4757389;30;20151;-84
2023/10/24 10:15:06;;;;;;;4.35;2.33;;;14.50;95.70;;;;;;4751513;30;20047;-81
2023/10/24 10:17:36;;;;;;;5.18;2.67;;;14.50;95.70;;;;;;4763228;30;20143;-81
2023/10/24 10:20:19;;;;;;;4.88;2.20;;;14.50;95.60;;;;;;4746520;30;20093;-83
2023/10/24 10:27:49;;;;;;;3.08;1.77;;;14.50;95.60;;;;;;4769752;30;20400;-82
2023/10/24 10:30:38;;;;;;;3.33;1.98;;;14.40;95.60;;;;;;4751476;30;20044;-84
2023/10/24 10:33:23;;;;;;;4.75;2.13;;;14.30;95.60;;;;;;4754526;30;20131;-86
2023/10/24 10:35:58;;;;;;;3.10;1.92;;;14.30;95.80;;;;;;4753619;30;20139;-84
2023/10/24 10:38:44;;;;;;;2.70;1.25;;;14.30;95.80;;;;;;4752345;30;20048;-85
2023/10/24 10:41:23;;;;;;;2.33;1.45;;;14.30;95.70;;;;;;4753250;30;20048;-85
2023/10/24 10:43:57;;;;;;;3.42;1.25;;;14.40;95.70;;;;;;4745373;30;20098;-85
2023/10/24 10:46:30;;;;;;;2.95;1.30;;;14.50;95.70;;;;;;4754778;30;20425;-84
2023/10/24 10:49:02;;;;;;;2.40;1.45;;;14.60;95.60;;;;;;4761704;30;20047;-82
2023/10/24 10:51:37;;;;;;;2.92;1.25;;;14.70;95.60;;;;;;4754544;30;20058;-83
2023/10/24 10:54:17;;;;;;;2.35;1.40;;;14.80;95.50;;;;;;4754294;30;20055;-81
2023/10/24 10:56:48;;;;;;;3.05;2.10;;;14.90;95.40;;;;;;4754431;30;20056;-82
2023/10/24 10:59:57;;;;;;;3.50;2.10;;;14.80;95.00;;;;;;4736453;30;20063;-84
2023/10/24 11:02:55;;;;;;;4.70;2.50;;;14.70;95.00;;;;;;4739805;30;20141;-80
2023/10/24 11:05:43;;;;;;;3.65;2.22;;;14.70;94.80;;;;;;4749889;30;20147;-85
2023/10/24 11:08:17;;;;;;;4.25;1.90;;;14.70;95.00;;;;;;4741559;30;20057;-83
2023/10/24 11:10:55;;;;;;;4.43;1.85;;;14.60;95.00;;;;;;4736589;30;20477;-82
2023/10/24 11:13:34;;;;;;;3.13;1.40;;;14.60;95.00;;;;;;4736435;30;20056;-82
2023/10/24 11:16:02;;;;;;;2.80;1.67;;;14.70;95.10;;;;;;4736164;30;20056;-81
2023/10/24 11:18:31;;;;;;;3.45;2.00;;;14.70;95.00;;;;;;4736357;30;20454;-83
2023/10/24 11:20:59;;;;;;;2.78;1.88;;;14.70;95.00;;;;;;4736284;30;20056;-81
2023/10/24 11:23:26;;;;;;;3.33;2.00;;;14.70;94.90;;;;;;4736817;30;20060;-88
2023/10/24 11:25:57;;;;;;;3.80;1.90;;;14.70;94.90;;;;;;4721798;30;20098;-83
2023/10/24 11:28:27;;;;;;;5.80;2.40;;;14.70;95.00;;;;;;4736159;30;20565;-84
2023/10/24 11:30:55;;;;;;;4.00;2.15;;;14.60;94.90;;;;;;4730050;30;20089;-82
2023/10/24 11:33:24;;;;;;;2.97;2.00;;;14.70;95.00;;;;;;4727791;30;20493;-80
2023/10/24 11:35:51;;;;;;;4.68;1.77;;;14.70;94.90;;;;;;4754813;30;20139;-80
2023/10/24 11:38:18;;;;;;;4.53;2.08;;;14.70;95.00;;;;;;4721859;30;20152;-85
2023/10/24 11:40:48;;;;;;;2.75;1.45;;;14.70;95.00;;;;;;4736216;30;20113;-84
2023/10/24 11:43:17;;;;;;;2.80;1.50;;;14.70;95.00;;;;;;4740778;30;20043;-84
2023/10/24 11:45:47;;;;;;;3.97;1.88;;;14.60;94.90;;;;;;4736941;30;20056;-83
2023/10/24 11:48:15;;;;;;;5.25;2.25;;;14.50;94.90;;;;;;4770989;30;20636;-83
2023/10/24 11:50:46;;;;;;;2.72;1.40;;;14.50;94.90;;;;;;4753825;30;20048;-83
2023/10/24 11:53:26;;;;;;;3.13;1.45;;;14.40;95.00;;;;;;4737093;30;20106;-92
2023/10/24 11:55:54;;;;;;;2.45;1.40;;;14.40;95.10;;;;;;4707934;30;20421;-84
2023/10/24 11:58:21;;;;;;;4.85;2.20;;;14.30;95.20;;;;;;4768103;30;20544;-84
2023/10/24 12:00:48;;;;;;;2.50;1.35;;;14.30;95.10;;;;;;4739630;30;20052;-85
2023/10/24 12:03:15;;;;;;;3.67;1.70;;;14.20;95.30;;;;;;4724952;30;20115;-87
2023/10/24 12:06:02;;;;;;;;;;;14.10;95.60;;;;;;4743115;30;20059;-86
2023/10/24 12:08:32;;;;;;;3.05;1.40;;;14.00;95.40;;;;;;4772319;30;19925;-85
2023/10/24 12:10:59;;;;;;;2.45;1.20;;;13.90;95.50;;;;;;4757267;30;20074;-84
2023/10/24 12:13:34;;;;;;;3.60;1.35;;;13.90;95.50;;;;;;4747347;30;20048;-83
2023/10/24 12:16:02;;;;;;;3.72;1.95;;;13.90;95.50;;;;;;4781690;30;20047;-84
2023/10/24 12:18:29;;;;;;;2.17;1.08;;;13.80;95.50;;;;;;4770397;30;20055;-85
2023/10/24 12:20:56;;;;;;;5.03;1.40;;;13.80;95.60;;;;;;4742860;30;20048;-86
2023/10/24 12:23:24;;;;;;;2.35;0.93;;;13.70;95.60;;;;;;4742712;30;20063;-85
2023/10/24 12:25:54;;;;;;;2.78;1.42;;;13.70;95.70;;;;;;4742536;30;20055;-86
2023/10/24 12:28:21;;;;;;;3.15;1.80;;;13.70;95.80;;;;;;4749523;30;20048;-85
2023/10/24 12:30:52;;;;;;;2.70;1.13;;;13.70;95.80;;;;;;4771160;30;20107;-85
2023/10/24 12:33:20;;;;;;;1.67;0.90;;;13.80;95.80;;;;;;4756490;30;20510;-85
2023/10/24 12:35:47;;;;;;;3.50;2.03;;;13.90;95.80;;;;;;4756643;30;20366;-84
2023/10/24 12:38:15;;;;;;;3.97;1.52;;;13.90;95.70;;;;;;4742334;30;20058;-84
2023/10/24 12:40:47;;;;;;;2.63;1.27;;;13.80;95.80;;;;;;4766664;30;20051;-85
2023/10/24 12:43:17;;;;;;;2.72;1.00;;;13.70;95.80;;;;;;4779518;30;20051;-84
2023/10/24 12:45:45;;;;;;;2.40;0.90;;;13.60;96.00;;;;;;4773744;30;20047;-84
2023/10/24 12:48:18;;;;;;;2.92;0.80;;;13.60;96.10;;;;;;4772906;30;20107;-86
2023/10/24 12:50:49;;;;;;;1.88;0.80;;;13.50;96.30;;;;;;4759773;30;20142;-85
2023/10/24 12:53:20;;;;;;;1.17;0.60;;;13.40;96.40;;;;;;4773170;29;20056;-85
2023/10/24 12:55:50;;;;;;;1.80;0.98;;;13.30;96.60;;;;;;4756283;30;20158;-84
2023/10/24 12:58:23;;;;;;;2.22;1.00;;;13.30;96.70;;;;;;4755584;30;20059;-84
2023/10/24 13:00:56;;;;;;;1.95;0.75;;;13.20;96.80;;;;;;4752983;30;20052;-85
2023/10/24 13:03:24;;;;;;;2.10;1.08;;;13.10;96.80;;;;;;4755810;30;20109;-84
2023/10/24 13:05:56;;;;;;;1.80;1.00;;;13.00;96.90;;;;;;4755965;30;20085;-87
2023/10/24 13:08:29;;;;;;;1.65;0.68;;;12.90;97.00;;;;;;4756051;30;20158;-85
2023/10/24 13:10:57;;;;;;;1.00;0.57;;;12.90;97.10;;;;;;4756090;30;20113;-84
2023/10/24 13:13:27;;;;;;;2.45;0.80;;;12.90;97.10;;;;;;4755445;30;20082;-82
2023/10/24 13:15:54;;;;;;;1.10;0.50;;;12.90;97.20;;;;;;4766877;30;20044;-83
2023/10/24 13:18:21;;;;;;;2.10;0.63;;;12.90;97.20;;;;;;4755646;30;20485;-86
2023/10/24 13:20:48;;;;;;;1.70;0.60;;;12.90;97.20;;;;;;4740600;30;20063;-82
2023/10/24 13:23:15;;;;;;;1.85;0.60;;;12.80;97.30;;;;;;4737834;30;20048;-82
2023/10/24 13:25:45;;;;;;;1.23;0.57;;;12.90;97.30;;;;;;4754438;30;20052;-85
2023/10/24 13:28:21;;;;;;;1.25;0.47;;;12.90;97.30;;;;;;4752635;30;20044;-85
2023/10/24 13:30:50;;;;;;;1.40;0.70;;;13.00;97.30;;;;;;4740204;30;20040;-82
2023/10/24 13:33:37;;;;;;;2.25;0.90;;;13.10;97.20;;;;;;4748815;30;20624;-83
2023/10/24 13:36:31;;;;;;;2.03;1.02;;;13.10;97.20;;;;;;4745384;30;20062;-85
2023/10/24 13:39:06;;;;;;;2.08;0.90;;;13.30;97.10;;;;;;4753508;30;20056;-85
2023/10/24 13:41:44;;;;;;;2.10;0.80;;;13.30;97.00;;;;;;4759382;30;20138;-87
2023/10/24 13:44:12;;;;;;;1.77;0.90;;;13.30;97.00;;;;;;4788146;29;20138;-85
2023/10/24 13:46:40;;;;;;;2.30;1.45;;;13.30;97.10;;;;;;4756270;30;20055;-86
2023/10/24 13:49:07;;;;;;;1.88;0.95;;;13.30;97.00;;;;;;4755705;30;20064;-88
2023/10/24 13:51:35;;;;;;;1.55;0.70;;;13.30;97.10;;;;;;4770453;30;20108;-88
2023/10/24 13:54:02;;;;;;;1.50;0.77;;;13.30;97.10;;;;;;4753640;30;20056;-81
2023/10/24 13:56:30;;;;;;;1.95;0.85;;;13.50;97.10;;;;;;4752994;30;20052;-83
2023/10/24 13:58:57;;;;;;;1.80;0.88;;;13.70;97.00;;;;;;4754445;30;20059;-83
2023/10/24 14:01:25;;;;;;;1.98;0.80;;;13.90;96.80;;;;;;4740282;30;20058;-83
2023/10/24 14:03:53;;;;;;;1.45;0.60;;;14.00;96.70;;;;;;4769965;30;20109;-78
2023/10/24 14:06:20;;;;;;;2.67;0.60;;;14.10;96.50;;;;;;4752140;30;20064;-81
2023/10/24 14:08:47;;;;;;;1.75;0.70;;;14.10;96.40;;;;;;4767116;30;20056;-84
2023/10/24 14:11:17;;;;;;;1.92;0.70;;;14.10;96.50;;;;;;4770117;30;20056;-84
2023/10/24 14:13:44;;;;;;;0.85;0.45;;;14.00;96.50;;;;;;4740234;30;20058;-81
2023/10/24 14:16:11;;;;;;;1.58;0.60;;;14.00;96.60;;;;;;4754292;30;20062;-82
2023/10/24 14:18:39;;;;;;;0.88;0.40;;;14.10;96.50;;;;;;4741010;30;20420;-84
2023/10/24 14:21:06;;;;;;;1.30;0.50;;;14.10;96.50;;;;;;4754956;30;20151;-82
2023/10/24 14:24:02;;;;;;;1.15;0.50;;;14.10;96.50;;;;;;4752788;30;20055;-92
2023/10/24 14:27:00;;;;;;;1.52;0.40;;;14.20;96.40;;;;;;4766500;30;20533;-92
2023/10/24 14:29:27;;;;;;;1.30;0.50;;;14.10;96.30;;;;;;4752101;30;20418;-82
2023/10/24 14:31:54;;;;;;;0.88;0.47;;;14.10;96.30;;;;;;4751869;30;20534;-83
2023/10/24 14:34:21;;;;;;;1.13;0.40;;;14.00;96.40;;;;;;4740017;30;20138;-82
2023/10/24 14:36:48;;;;;;;2.53;0.55;;;13.90;96.40;;;;;;4754533;30;20056;-79
2023/10/24 14:39:15;;;;;;;1.85;0.52;;;13.90;96.50;;;;;;4738427;30;20067;-82
2023/10/24 14:41:42;;;;;;;3.28;0.50;;;13.80;96.50;;;;;;4742279;30;20060;-82
2023/10/24 14:44:09;;;;;;;0.93;0.50;;;13.80;96.60;;;;;;4722222;30;20056;-81
2023/10/24 14:46:36;;;;;;;3.45;0.70;;;13.70;96.50;;;;;;4767239;30;20063;-78
2023/10/24 14:49:03;;;;;;;1.42;0.47;;;13.70;96.60;;;;;;4753740;30;20052;-79
2023/10/24 14:51:30;;;;;;;2.13;0.65;;;13.60;96.60;;;;;;4736404;30;20082;-78
2023/10/24 14:53:57;;;;;;;2.78;0.55;;;13.60;96.60;;;;;;4758784;30;20048;-79
2023/10/24 14:56:24;;;;;;;3.28;0.65;;;13.60;96.60;;;;;;4739279;30;20052;-81
2023/10/24 14:58:51;;;;;;;2.70;0.95;;;13.70;96.60;;;;;;4739524;30;20109;-82
2023/10/24 15:01:18;;;;;;;8.23;1.20;;;13.70;96.50;;;;;;4754447;30;20176;-81
2023/10/24 15:03:49;;;;;;;5.40;1.25;;;13.70;96.50;;;;;;4739211;30;20083;-81
2023/10/24 15:06:16;;;;;;;6.63;1.10;;;13.70;96.50;;;;;;4746670;30;20076;-82
2023/10/24 15:08:43;;;;;;;3.63;1.10;;;13.70;96.50;;;;;;4740042;30;20044;-86
2023/10/24 15:11:10;;;;;;;3.20;1.25;;;13.60;96.50;;;;;;4751734;30;20406;-86
2023/10/24 15:13:37;;;;;;;3.65;0.70;;;13.60;96.60;;;;;;4754131;30;20044;-85
2023/10/24 15:16:05;;;;;;;2.60;0.60;;;13.60;96.60;;;;;;4754249;30;20056;-87
2023/10/24 15:18:32;;;;;;;1.85;0.40;;;13.60;96.60;;;;;;4754674;30;20497;-82
2023/10/24 15:21:04;;;;;;;3.85;0.55;;;13.60;96.60;;;;;;4758606;30;20052;-84
2023/10/24 15:23:31;;;;;;;1.42;0.30;;;13.70;96.60;;;;;;4766381;30;20058;-82
2023/10/24 15:25:58;;;;;;;1.88;0.50;;;13.60;96.50;;;;;;4763362;30;20060;-83
2023/10/24 15:28:26;;;;;;;0.90;0.50;;;13.70;96.50;;;;;;4754688;30;20061;-81
2023/10/24 15:30:53;;;;;;;1.30;0.30;;;13.60;96.50;;;;;;4747021;30;20086;-83
2023/10/24 15:33:22;;;;;;;1.05;0.50;;;13.70;96.40;;;;;;4778731;29;20047;-86
2023/10/24 15:36:00;;;;;;;1.05;0.43;;;13.70;96.40;;;;;;4756361;30;20060;-82
2023/10/24 15:38:30;;;;;;;1.05;0.40;;;13.70;96.30;;;;;;4756775;30;20076;-84
2023/10/24 15:40:58;;;;;;;0.55;0.30;;;13.60;96.30;;;;;;4756966;30;20056;-83
2023/10/24 15:43:25;;;;;;;0.50;0.25;;;13.60;96.40;;;;;;4754005;30;20473;-82
2023/10/24 15:46:20;;;;;;;0.88;0.40;;;13.50;96.50;;;;;;4778274;30;20134;-82
2023/10/24 15:48:48;;;;;;;0.90;0.40;;;13.40;96.50;;;;;;4732896;30;20067;-88
2023/10/24 15:51:15;;;;;;;2.42;0.57;;;13.30;96.70;;;;;;4758949;30;20062;-84
2023/10/24 15:53:45;;;;;;;0.98;0.40;;;13.20;96.70;;;;;;4757819;30;20060;-89
2023/10/24 15:56:12;;;;;;;1.88;0.40;;;13.10;96.80;;;;;;4754741;30;20063;-87
2023/10/24 15:58:42;;;;;;;0.98;0.40;;;13.10;96.80;;;;;;4753931;30;20059;-84
2023/10/24 16:01:16;;;;;;;0.80;0.25;;;13.10;96.80;;;;;;4772017;30;20059;-84
2023/10/24 16:03:45;;;;;;;1.10;0.40;;;13.00;96.80;;;;;;4755198;30;20048;-82
2023/10/24 16:06:16;;;;;;;1.23;0.30;;;13.00;96.90;;;;;;4752726;30;20063;-80
2023/10/24 16:08:43;;;;;;;0.70;0.30;;;12.90;97.00;;;;;;4773023;30;20047;-79
2023/10/24 16:11:10;;;;;;;0.85;0.22;;;12.80;97.10;;;;;;4757481;30;20047;-82
2023/10/24 16:13:37;;;;;;;0.88;0.30;;;12.70;97.20;;;;;;4776346;30;20094;-81
2023/10/24 16:16:05;;;;;;;1.60;0.25;;;12.70;97.20;;;;;;4746403;30;20051;-84
2023/10/24 16:18:33;;;;;;;1.08;0.10;;;12.60;97.30;;;;;;4742560;30;20052;-82
2023/10/24 16:21:04;;;;;;;0.68;0.20;;;12.50;97.40;;;;;;4757156;30;20064;-84
2023/10/24 16:23:32;;;;;;;1.00;0.20;;;12.40;97.40;;;;;;4754417;30;20138;-85
2023/10/24 16:26:03;;;;;;;1.65;0.40;;;12.40;97.50;;;;;;4763912;30;20065;-81
2023/10/24 16:28:30;;;;;;;0.60;0.20;;;12.30;97.60;;;;;;4746954;30;20056;-85
2023/10/24 16:30:58;;;;;;;0.47;0.20;;;12.20;97.70;;;;;;4771432;30;20094;-82
2023/10/24 16:33:25;;;;;;;1.02;0.30;;;12.10;97.70;;;;;;4771156;30;20148;-86
2023/10/24 16:35:56;;;;;;;0.63;0.20;;;12.10;97.80;;;;;;4760056;30;20136;-89
2023/10/24 16:38:23;;;;;;;0.60;0.20;;;12.00;97.80;;;;;;4743140;30;20563;-85
2023/10/24 16:40:51;;;;;;;0.80;0.30;;;12.00;97.90;;;;;;4743243;30;20048;-85
2023/10/24 16:43:18;;;;;;;0.50;0.30;;;11.90;97.90;;;;;;4762431;30;20079;-88
2023/10/24 16:45:50;;;;;;;0.63;0.20;;;11.90;98.00;;;;;;4765292;30;20087;-86
2023/10/24 16:49:03;;;;;;;0.93;0.30;;;11.80;98.00;;;;;;4761982;30;20570;-92
2023/10/24 16:51:51;;;;;;;0.95;0.30;;;11.80;98.10;;;;;;4777254;29;20133;-83
2023/10/24 16:54:21;;;;;;;1.90;0.35;;;11.80;98.10;;;;;;4745117;30;20056;-84
2023/10/24 16:56:48;;;;;;;0.85;0.30;;;11.80;98.10;;;;;;4741535;30;20044;-84
2023/10/24 16:59:15;;;;;;;1.85;0.22;;;11.80;98.10;;;;;;4739764;30;20066;-83
2023/10/24 17:01:49;;;;;;;0.60;0.20;;;11.80;98.10;;;;;;4753915;30;20076;-91
2023/10/24 17:04:17;;;;;;;1.50;0.28;;;11.70;98.10;;;;;;4756766;30;20056;-86
2023/10/24 17:06:49;;;;;;;1.10;0.25;;;11.70;98.20;;;;;;4757328;30;20125;-86
2023/10/24 17:09:48;;;;;;;0.50;0.20;;;11.70;98.20;;;;;;4789012;29;20043;-90
2023/10/24 17:12:21;;;;;;;0.88;0.22;;;11.60;98.50;;;;;;4749754;30;20051;-87